Ekin-s — TCMW3 — position and weather

sailwx.info

Track history (hours):
 
Tides and Currents Weather Stations Pressure Air Temp Water Temp Dewpoint Dewpoint Depression Visibility Wind Speed Wind Dir Waves Ship Positions

Ekin-s

Last reported at 2014-Sep-14 05:32 UTC. Time now 2014-Sep-16 09:29 UTC.
Position N 50°28' W 000°15'.

Length 109 m; draft 6.9 m.

Type: Ship. MMSI: 271042836.

Date/timePositionNaut miles runAvg speedWind from/ knotsBaromVisibWave heightAir tempDewpointWater temp
2014-Sep-14 05:32N 50°28' W 000°15'2713.4
2014-Sep-14 03:33N 50°36' E 000°25'1211.9
2014-Sep-14 02:33N 50°41' E 000°42'1111.4
2014-Sep-14 01:33N 50°48' E 000°57'5413.4
2014-Sep-13 21:34N 51°26' E 001°56'1313.0
2014-Sep-13 20:33N 51°36' E 002°10'9411.7
2014-Sep-13 12:33N 52°49' E 003°46'1913.3
2014-Sep-13 11:05N 53°03' E 004°09'2911.3
2014-Sep-13 08:33N 53°27' E 004°35'1110.7
2014-Sep-13 07:33N 53°31' E 004°51'1111.0
2014-Sep-13 06:33N 53°35' E 005°08'1312.5
2014-Sep-13 05:33N 53°39' E 005°28'1313.2
2014-Sep-13 04:33N 53°44' E 005°49'6112.1
2014-Sep-12 23:33N 53°60' E 007°28'1110.8
2014-Sep-12 22:33N 54°02' E 007°46'1111.2
2014-Sep-12 21:33N 54°01' E 008°05'1212.2
2014-Sep-12 20:33N 53°59' E 008°26'1413.8
2014-Sep-12 19:34N 53°52' E 008°45'1414.2
2014-Sep-12 18:33N 53°53' E 009°09'1212.0
2014-Sep-12 17:33N 53°45' E 009°24'1110.8
2014-Sep-12 16:34N 53°36' E 009°35'9 9.4
2014-Sep-12 15:34N 53°33' E 009°50'4 4.4
2014-Sep-12 14:32N 53°31' E 009°56'0 0.0
2014-Sep-12 13:29N 53°31' E 009°56'0 0.0
2014-Sep-12 12:29N 53°31' E 009°56'0 0.0
2014-Sep-12 11:32N 53°31' E 009°56'0 0.0
2014-Sep-12 10:32N 53°31' E 009°56'0 0.0
2014-Sep-12 09:32N 53°31' E 009°56'0 0.0
2014-Sep-12 08:32N 53°31' E 009°56'0 0.0
2014-Sep-12 07:26N 53°31' E 009°56'0 0.0
2014-Sep-12 06:32N 53°31' E 009°56'0 0.0
2014-Sep-12 05:32N 53°31' E 009°56'0 0.0
2014-Sep-12 04:32N 53°31' E 009°56'0 0.0
2014-Sep-12 03:32N 53°31' E 009°56'0 0.0
2014-Sep-12 02:29N 53°31' E 009°56'0 0.0
2014-Sep-12 01:32N 53°31' E 009°56'0 0.0
2014-Sep-12 00:32N 53°31' E 009°56'0 0.0
2014-Sep-11 23:32N 53°31' E 009°56'0 0.0
2014-Sep-11 22:29N 53°31' E 009°56'0 0.0
2014-Sep-11 21:29N 53°31' E 009°56'0 0.0
2014-Sep-11 20:29N 53°31' E 009°56'0 0.0
2014-Sep-11 19:32N 53°31' E 009°56'0 0.0
2014-Sep-11 18:32N 53°31' E 009°56'0 0.0
2014-Sep-11 17:29N 53°31' E 009°56'0 0.0
2014-Sep-11 16:32N 53°31' E 009°56'0 0.0
2014-Sep-11 15:32N 53°31' E 009°56'0 0.0
2014-Sep-11 14:29N 53°31' E 009°56'0 0.0
2014-Sep-11 13:32N 53°31' E 009°56'0 0.0
2014-Sep-11 12:23N 53°31' E 009°56'0 0.0
2014-Sep-11 11:32N 53°31' E 009°56'0 0.0
2014-Sep-11 10:32N 53°31' E 009°56'0 0.0
2014-Sep-11 09:32N 53°31' E 009°56'5 5.0
2014-Sep-11 08:33N 53°33' E 009°49'1110.5
2014-Sep-11 07:33N 53°37' E 009°33'1010.4
2014-Sep-11 06:33N 53°46' E 009°24'10 9.6
2014-Sep-11 05:34N 53°53' E 009°12'9 8.5
2014-Sep-11 04:33N 53°51' E 008°58'1010.2
2014-Sep-11 03:33N 53°54' E 008°41'1010.5
2014-Sep-11 02:33N 53°59' E 008°25'1311.1
2014-Sep-11 01:22N 53°60' E 008°03'1012.5
2014-Sep-11 00:33N 54°05' E 007°48'1312.9
2014-Sep-10 23:33N 54°12' E 007°30'1413.7
2014-Sep-10 22:33N 54°24' E 007°18'1414.0
2014-Sep-10 21:33N 54°36' E 007°06'13912.6
2014-Sep-10 10:31N 56°53' E 007°49'1313.4
2014-Sep-10 09:33N 57°04' E 007°60'1413.3
2014-Sep-10 08:32N 57°16' E 008°14'9312.6
2014-Sep-10 01:10N 57°57' E 010°49'812.6
2014-Sep-10 00:33N 57°52' E 011°00'1212.0
2014-Sep-09 23:32N 57°44' E 011°18'1212.2
2014-Sep-09 22:33N 57°36' E 011°35'3 3.4
2014-Sep-09 21:32N 57°35' E 011°41'0 0.0
2014-Sep-09 20:32N 57°35' E 011°41'0 0.0
2014-Sep-09 19:32N 57°35' E 011°41'0 0.1
2014-Sep-09 18:32N 57°35' E 011°41'9 9.5
2014-Sep-09 17:33N 57°34' E 011°24'1312.8
2014-Sep-09 16:33N 57°35' E 010°60'12 1.7
2014-Sep-09 09:33N 57°38' E 010°39'0 0.0
2014-Sep-09 08:33N 57°38' E 010°39'0 0.0
2014-Sep-09 07:33N 57°38' E 010°39'0 0.0
2014-Sep-09 05:33N 57°38' E 010°39'0 0.0
2014-Sep-09 04:33N 57°38' E 010°39'0 0.0
2014-Sep-09 03:33N 57°38' E 010°39'0 0.0
2014-Sep-09 02:18N 57°38' E 010°39'0 0.0
2014-Sep-09 01:12N 57°38' E 010°39'0 0.0
2014-Sep-09 00:33N 57°38' E 010°39'0 0.0
2014-Sep-08 23:33N 57°38' E 010°39'0 0.0
2014-Sep-08 21:15N 57°38' E 010°39'0 0.0
2014-Sep-08 20:33N 57°38' E 010°39'0 0.0
2014-Sep-08 19:33N 57°38' E 010°39'0 0.0
2014-Sep-08 16:30N 57°38' E 010°39'0 0.0
2014-Sep-08 15:33N 57°38' E 010°39'0 0.0
2014-Sep-08 14:33N 57°38' E 010°39'0 0.0
2014-Sep-08 11:33N 57°38' E 010°39'0 0.0
2014-Sep-08 10:33N 57°38' E 010°39'0 0.0
2014-Sep-08 07:33N 57°38' E 010°39'0 0.0
2014-Sep-08 06:33N 57°38' E 010°39'0 0.0
2014-Sep-08 04:09N 57°38' E 010°39'0 0.0
2014-Sep-08 03:33N 57°38' E 010°39'0 0.0
2014-Sep-08 02:33N 57°38' E 010°39'0 0.0
2014-Sep-08 01:33N 57°38' E 010°39'0 0.0
2014-Sep-07 23:12N 57°38' E 010°39'0 0.0
2014-Sep-07 21:27N 57°38' E 010°39'0 0.0
2014-Sep-07 20:15N 57°38' E 010°39'0 0.1
2014-Sep-07 19:03N 57°38' E 010°39'0 0.0
2014-Sep-07 18:33N 57°38' E 010°39'0 0.0
2014-Sep-07 17:33N 57°38' E 010°39'0 0.0
2014-Sep-07 16:21N 57°38' E 010°39'0 0.0
2014-Sep-07 15:15N 57°38' E 010°39'0 0.0
2014-Sep-07 14:27N 57°38' E 010°39'0 0.0
2014-Sep-07 13:33N 57°38' E 010°39'0 0.0
2014-Sep-07 12:30N 57°38' E 010°39'0 0.0
2014-Sep-07 11:30N 57°38' E 010°39'0 0.0
2014-Sep-07 10:12N 57°38' E 010°39'0 0.0
2014-Sep-07 09:33N 57°38' E 010°39'0 0.0
2014-Sep-07 08:33N 57°38' E 010°39'0 0.0
2014-Sep-07 07:15N 57°38' E 010°38'0 0.0
2014-Sep-07 06:33N 57°38' E 010°39'0 0.0
2014-Sep-07 05:33N 57°38' E 010°39'0 0.0
2014-Sep-07 04:33N 57°38' E 010°39'0 0.0
2014-Sep-07 03:33N 57°38' E 010°39'0 0.0
2014-Sep-07 02:27N 57°38' E 010°39'0 0.0
2014-Sep-07 01:33N 57°38' E 010°39'0 0.0
2014-Sep-07 00:33N 57°38' E 010°39'0 0.0
2014-Sep-06 23:33N 57°38' E 010°39'0 0.0
2014-Sep-06 22:12N 57°38' E 010°39'0 0.0
2014-Sep-06 21:30N 57°38' E 010°39'0 0.0
2014-Sep-06 20:33N 57°38' E 010°39'0 0.0
2014-Sep-06 19:33N 57°38' E 010°39'0 0.0
2014-Sep-06 18:33N 57°38' E 010°39'0 0.0
2014-Sep-06 17:33N 57°38' E 010°39'0 0.0
2014-Sep-06 16:33N 57°38' E 010°39'0 0.0
2014-Sep-06 15:33N 57°38' E 010°39'0 0.0
2014-Sep-06 14:09N 57°38' E 010°39'0 0.0
2014-Sep-06 13:27N 57°38' E 010°39'0 0.0
2014-Sep-06 12:30N 57°38' E 010°39'0 0.0
2014-Sep-06 11:33N 57°38' E 010°39'0 0.0
2014-Sep-06 10:33N 57°38' E 010°39'0 0.0
2014-Sep-06 09:03N 57°38' E 010°39'0 0.0
2014-Sep-06 08:24N 57°38' E 010°39'0 0.0
2014-Sep-06 07:33N 57°38' E 010°39'0 0.0
2014-Sep-06 06:33N 57°38' E 010°39'0 0.0
2014-Sep-06 05:21N 57°38' E 010°39'0 0.0
2014-Sep-06 04:09N 57°38' E 010°39'0 0.0
2014-Sep-06 03:33N 57°38' E 010°39'0 0.0
2014-Sep-06 02:33N 57°38' E 010°39'0 0.0
2014-Sep-06 01:33N 57°38' E 010°39'0 0.0
2014-Sep-06 00:15N 57°38' E 010°39'0 0.0
2014-Sep-05 23:30N 57°38' E 010°39'0 0.0
2014-Sep-05 22:33N 57°38' E 010°39'0 0.0
2014-Sep-05 21:33N 57°38' E 010°39'0 0.0
2014-Sep-05 20:06N 57°38' E 010°39'0 0.0
2014-Sep-05 19:24N 57°38' E 010°39'0 0.0
2014-Sep-05 18:33N 57°38' E 010°39'0 0.0
2014-Sep-05 17:33N 57°38' E 010°39'0 0.0
2014-Sep-05 16:21N 57°38' E 010°39'0 0.0
2014-Sep-05 15:33N 57°38' E 010°39'0 0.0
2014-Sep-05 14:33N 57°38' E 010°39'0 0.0
2014-Sep-05 13:33N 57°38' E 010°39'0 0.0
2014-Sep-05 10:33N 57°38' E 010°39'0 0.0
2014-Sep-05 09:30N 57°38' E 010°39'0 0.0
2014-Sep-05 08:33N 57°38' E 010°39'0 0.0
2014-Sep-05 06:12N 57°38' E 010°39'0 0.0
2014-Sep-05 05:33N 57°38' E 010°39'0 0.0
2014-Sep-05 04:33N 57°38' E 010°39'0 0.0
2014-Sep-05 03:30N 57°38' E 010°39'0 0.0
2014-Sep-05 01:33N 57°38' E 010°39'0 0.0
2014-Sep-05 00:33N 57°38' E 010°39'0 0.0
2014-Sep-04 23:30N 57°38' E 010°39'0 0.0
2014-Sep-04 21:33N 57°38' E 010°39'0 0.0
2014-Sep-04 20:33N 57°38' E 010°39'0 0.0
2014-Sep-04 19:33N 57°38' E 010°39'0 0.0
2014-Sep-04 18:27N 57°38' E 010°39'0 0.0
2014-Sep-04 17:30N 57°38' E 010°39'0 0.0
2014-Sep-04 16:33N 57°38' E 010°39'0 0.0
2014-Sep-04 15:33N 57°38' E 010°39'0 0.0
2014-Sep-04 14:30N 57°38' E 010°39'0 0.0
2014-Sep-04 13:24N 57°38' E 010°39'0 0.0
2014-Sep-04 12:33N 57°38' E 010°39'0 0.0
2014-Sep-04 11:33N 57°38' E 010°39'0 0.0
2014-Sep-04 10:21N 57°38' E 010°39'0 0.0
2014-Sep-04 09:03N 57°38' E 010°39'0 0.0
2014-Sep-04 08:33N 57°38' E 010°39'0 0.0
2014-Sep-04 07:33N 57°38' E 010°39'0 0.0
2014-Sep-04 06:33N 57°38' E 010°39'0 0.0
2014-Sep-04 05:33N 57°38' E 010°39'  
Track history (hours):
 
Tides and Currents Weather Stations Pressure Air Temp Water Temp Dewpoint Dewpoint Depression Visibility Wind Speed Wind Dir Waves Ship Positions

Ekin-s

Last reported at 2014-Sep-14 05:32 UTC. Time now 2014-Sep-16 09:29 UTC.
Position N 50°28' W 000°15'.

Length 109 m; draft 6.9 m.

Type: Ship. MMSI: 271042836.

Date/timePositionNaut miles runAvg speedWind from/ knotsBaromVisibWave heightAir tempDewpointWater temp
2014-Sep-14 05:32N 50°28' W 000°15'2713.4
2014-Sep-14 03:33N 50°36' E 000°25'1211.9
2014-Sep-14 02:33N 50°41' E 000°42'1111.4
2014-Sep-14 01:33N 50°48' E 000°57'5413.4
2014-Sep-13 21:34N 51°26' E 001°56'1313.0
2014-Sep-13 20:33N 51°36' E 002°10'9411.7
2014-Sep-13 12:33N 52°49' E 003°46'1913.3
2014-Sep-13 11:05N 53°03' E 004°09'2911.3
2014-Sep-13 08:33N 53°27' E 004°35'1110.7
2014-Sep-13 07:33N 53°31' E 004°51'1111.0
2014-Sep-13 06:33N 53°35' E 005°08'1312.5
2014-Sep-13 05:33N 53°39' E 005°28'1313.2
2014-Sep-13 04:33N 53°44' E 005°49'6112.1
2014-Sep-12 23:33N 53°60' E 007°28'1110.8
2014-Sep-12 22:33N 54°02' E 007°46'1111.2
2014-Sep-12 21:33N 54°01' E 008°05'1212.2
2014-Sep-12 20:33N 53°59' E 008°26'1413.8
2014-Sep-12 19:34N 53°52' E 008°45'1414.2
2014-Sep-12 18:33N 53°53' E 009°09'1212.0
2014-Sep-12 17:33N 53°45' E 009°24'1110.8
2014-Sep-12 16:34N 53°36' E 009°35'9 9.4
2014-Sep-12 15:34N 53°33' E 009°50'4 4.4
2014-Sep-12 14:32N 53°31' E 009°56'0 0.0
2014-Sep-12 13:29N 53°31' E 009°56'0 0.0
2014-Sep-12 12:29N 53°31' E 009°56'0 0.0
2014-Sep-12 11:32N 53°31' E 009°56'0 0.0
2014-Sep-12 10:32N 53°31' E 009°56'0 0.0
2014-Sep-12 09:32N 53°31' E 009°56'0 0.0
2014-Sep-12 08:32N 53°31' E 009°56'0 0.0
2014-Sep-12 07:26N 53°31' E 009°56'0 0.0
2014-Sep-12 06:32N 53°31' E 009°56'0 0.0
2014-Sep-12 05:32N 53°31' E 009°56'0 0.0
2014-Sep-12 04:32N 53°31' E 009°56'0 0.0
2014-Sep-12 03:32N 53°31' E 009°56'0 0.0
2014-Sep-12 02:29N 53°31' E 009°56'0 0.0
2014-Sep-12 01:32N 53°31' E 009°56'0 0.0
2014-Sep-12 00:32N 53°31' E 009°56'0 0.0
2014-Sep-11 23:32N 53°31' E 009°56'0 0.0
2014-Sep-11 22:29N 53°31' E 009°56'0 0.0
2014-Sep-11 21:29N 53°31' E 009°56'0 0.0
2014-Sep-11 20:29N 53°31' E 009°56'0 0.0
2014-Sep-11 19:32N 53°31' E 009°56'0 0.0
2014-Sep-11 18:32N 53°31' E 009°56'0 0.0
2014-Sep-11 17:29N 53°31' E 009°56'0 0.0
2014-Sep-11 16:32N 53°31' E 009°56'0 0.0
2014-Sep-11 15:32N 53°31' E 009°56'0 0.0
2014-Sep-11 14:29N 53°31' E 009°56'0 0.0
2014-Sep-11 13:32N 53°31' E 009°56'0 0.0
2014-Sep-11 12:23N 53°31' E 009°56'0 0.0
2014-Sep-11 11:32N 53°31' E 009°56'0 0.0
2014-Sep-11 10:32N 53°31' E 009°56'0 0.0
2014-Sep-11 09:32N 53°31' E 009°56'5 5.0
2014-Sep-11 08:33N 53°33' E 009°49'1110.5
2014-Sep-11 07:33N 53°37' E 009°33'1010.4
2014-Sep-11 06:33N 53°46' E 009°24'10 9.6
2014-Sep-11 05:34N 53°53' E 009°12'9 8.5
2014-Sep-11 04:33N 53°51' E 008°58'1010.2
2014-Sep-11 03:33N 53°54' E 008°41'1010.5
2014-Sep-11 02:33N 53°59' E 008°25'1311.1
2014-Sep-11 01:22N 53°60' E 008°03'1012.5
2014-Sep-11 00:33N 54°05' E 007°48'1312.9
2014-Sep-10 23:33N 54°12' E 007°30'1413.7
2014-Sep-10 22:33N 54°24' E 007°18'1414.0
2014-Sep-10 21:33N 54°36' E 007°06'13912.6
2014-Sep-10 10:31N 56°53' E 007°49'1313.4
2014-Sep-10 09:33N 57°04' E 007°60'1413.3
2014-Sep-10 08:32N 57°16' E 008°14'9312.6
2014-Sep-10 01:10N 57°57' E 010°49'812.6
2014-Sep-10 00:33N 57°52' E 011°00'1212.0
2014-Sep-09 23:32N 57°44' E 011°18'1212.2
2014-Sep-09 22:33N 57°36' E 011°35'3 3.4
2014-Sep-09 21:32N 57°35' E 011°41'0 0.0
2014-Sep-09 20:32N 57°35' E 011°41'0 0.0
2014-Sep-09 19:32N 57°35' E 011°41'0 0.1
2014-Sep-09 18:32N 57°35' E 011°41'9 9.5
2014-Sep-09 17:33N 57°34' E 011°24'1312.8
2014-Sep-09 16:33N 57°35' E 010°60'12 1.7
2014-Sep-09 09:33N 57°38' E 010°39'0 0.0
2014-Sep-09 08:33N 57°38' E 010°39'0 0.0
2014-Sep-09 07:33N 57°38' E 010°39'0 0.0
2014-Sep-09 05:33N 57°38' E 010°39'0 0.0
2014-Sep-09 04:33N 57°38' E 010°39'0 0.0
2014-Sep-09 03:33N 57°38' E 010°39'0 0.0
2014-Sep-09 02:18N 57°38' E 010°39'0 0.0
2014-Sep-09 01:12N 57°38' E 010°39'0 0.0
2014-Sep-09 00:33N 57°38' E 010°39'0 0.0
2014-Sep-08 23:33N 57°38' E 010°39'0 0.0
2014-Sep-08 21:15N 57°38' E 010°39'0 0.0
2014-Sep-08 20:33N 57°38' E 010°39'0 0.0
2014-Sep-08 19:33N 57°38' E 010°39'0 0.0
2014-Sep-08 16:30N 57°38' E 010°39'0 0.0
2014-Sep-08 15:33N 57°38' E 010°39'0 0.0
2014-Sep-08 14:33N 57°38' E 010°39'0 0.0
2014-Sep-08 11:33N 57°38' E 010°39'0 0.0
2014-Sep-08 10:33N 57°38' E 010°39'0 0.0
2014-Sep-08 07:33N 57°38' E 010°39'0 0.0
2014-Sep-08 06:33N 57°38' E 010°39'0 0.0
2014-Sep-08 04:09N 57°38' E 010°39'0 0.0
2014-Sep-08 03:33N 57°38' E 010°39'0 0.0
2014-Sep-08 02:33N 57°38' E 010°39'0 0.0
2014-Sep-08 01:33N 57°38' E 010°39'0 0.0
2014-Sep-07 23:12N 57°38' E 010°39'0 0.0
2014-Sep-07 21:27N 57°38' E 010°39'0 0.0
2014-Sep-07 20:15N 57°38' E 010°39'0 0.1
2014-Sep-07 19:03N 57°38' E 010°39'0 0.0
2014-Sep-07 18:33N 57°38' E 010°39'0 0.0
2014-Sep-07 17:33N 57°38' E 010°39'0 0.0
2014-Sep-07 16:21N 57°38' E 010°39'0 0.0
2014-Sep-07 15:15N 57°38' E 010°39'0 0.0
2014-Sep-07 14:27N 57°38' E 010°39'0 0.0
2014-Sep-07 13:33N 57°38' E 010°39'0 0.0
2014-Sep-07 12:30N 57°38' E 010°39'0 0.0
2014-Sep-07 11:30N 57°38' E 010°39'0 0.0
2014-Sep-07 10:12N 57°38' E 010°39'0 0.0
2014-Sep-07 09:33N 57°38' E 010°39'0 0.0
2014-Sep-07 08:33N 57°38' E 010°39'0 0.0
2014-Sep-07 07:15N 57°38' E 010°38'0 0.0
2014-Sep-07 06:33N 57°38' E 010°39'0 0.0
2014-Sep-07 05:33N 57°38' E 010°39'0 0.0
2014-Sep-07 04:33N 57°38' E 010°39'0 0.0
2014-Sep-07 03:33N 57°38' E 010°39'0 0.0
2014-Sep-07 02:27N 57°38' E 010°39'0 0.0
2014-Sep-07 01:33N 57°38' E 010°39'0 0.0
2014-Sep-07 00:33N 57°38' E 010°39'0 0.0
2014-Sep-06 23:33N 57°38' E 010°39'0 0.0
2014-Sep-06 22:12N 57°38' E 010°39'0 0.0
2014-Sep-06 21:30N 57°38' E 010°39'0 0.0
2014-Sep-06 20:33N 57°38' E 010°39'0 0.0
2014-Sep-06 19:33N 57°38' E 010°39'0 0.0
2014-Sep-06 18:33N 57°38' E 010°39'0 0.0
2014-Sep-06 17:33N 57°38' E 010°39'0 0.0
2014-Sep-06 16:33N 57°38' E 010°39'0 0.0
2014-Sep-06 15:33N 57°38' E 010°39'0 0.0
2014-Sep-06 14:09N 57°38' E 010°39'0 0.0
2014-Sep-06 13:27N 57°38' E 010°39'0 0.0
2014-Sep-06 12:30N 57°38' E 010°39'0 0.0
2014-Sep-06 11:33N 57°38' E 010°39'0 0.0
2014-Sep-06 10:33N 57°38' E 010°39'0 0.0
2014-Sep-06 09:03N 57°38' E 010°39'0 0.0
2014-Sep-06 08:24N 57°38' E 010°39'0 0.0
2014-Sep-06 07:33N 57°38' E 010°39'0 0.0
2014-Sep-06 06:33N 57°38' E 010°39'0 0.0
2014-Sep-06 05:21N 57°38' E 010°39'0 0.0
2014-Sep-06 04:09N 57°38' E 010°39'0 0.0
2014-Sep-06 03:33N 57°38' E 010°39'0 0.0
2014-Sep-06 02:33N 57°38' E 010°39'0 0.0
2014-Sep-06 01:33N 57°38' E 010°39'0 0.0
2014-Sep-06 00:15N 57°38' E 010°39'0 0.0
2014-Sep-05 23:30N 57°38' E 010°39'0 0.0
2014-Sep-05 22:33N 57°38' E 010°39'0 0.0
2014-Sep-05 21:33N 57°38' E 010°39'0 0.0
2014-Sep-05 20:06N 57°38' E 010°39'0 0.0
2014-Sep-05 19:24N 57°38' E 010°39'0 0.0
2014-Sep-05 18:33N 57°38' E 010°39'0 0.0
2014-Sep-05 17:33N 57°38' E 010°39'0 0.0
2014-Sep-05 16:21N 57°38' E 010°39'0 0.0
2014-Sep-05 15:33N 57°38' E 010°39'0 0.0
2014-Sep-05 14:33N 57°38' E 010°39'0 0.0
2014-Sep-05 13:33N 57°38' E 010°39'0 0.0
2014-Sep-05 10:33N 57°38' E 010°39'0 0.0
2014-Sep-05 09:30N 57°38' E 010°39'0 0.0
2014-Sep-05 08:33N 57°38' E 010°39'0 0.0
2014-Sep-05 06:12N 57°38' E 010°39'0 0.0
2014-Sep-05 05:33N 57°38' E 010°39'0 0.0
2014-Sep-05 04:33N 57°38' E 010°39'0 0.0
2014-Sep-05 03:30N 57°38' E 010°39'0 0.0
2014-Sep-05 01:33N 57°38' E 010°39'0 0.0
2014-Sep-05 00:33N 57°38' E 010°39'0 0.0
2014-Sep-04 23:30N 57°38' E 010°39'0 0.0
2014-Sep-04 21:33N 57°38' E 010°39'0 0.0
2014-Sep-04 20:33N 57°38' E 010°39'0 0.0
2014-Sep-04 19:33N 57°38' E 010°39'0 0.0
2014-Sep-04 18:27N 57°38' E 010°39'0 0.0
2014-Sep-04 17:30N 57°38' E 010°39'0 0.0
2014-Sep-04 16:33N 57°38' E 010°39'0 0.0
2014-Sep-04 15:33N 57°38' E 010°39'0 0.0
2014-Sep-04 14:30N 57°38' E 010°39'0 0.0
2014-Sep-04 13:24N 57°38' E 010°39'0 0.0
2014-Sep-04 12:33N 57°38' E 010°39'0 0.0
2014-Sep-04 11:33N 57°38' E 010°39'0 0.0
2014-Sep-04 10:21N 57°38' E 010°39'0 0.0
2014-Sep-04 09:03N 57°38' E 010°39'0 0.0
2014-Sep-04 08:33N 57°38' E 010°39'0 0.0
2014-Sep-04 07:33N 57°38' E 010°39'0 0.0
2014-Sep-04 06:33N 57°38' E 010°39'0 0.0
2014-Sep-04 05:33N 57°38' E 010°39'  

Dump ship's entire track history